Sunrise Beach, Washington
Current Conditions -  °F | °C
As of 5:53 PM on Thursday 18 Dec 2014 (Local Time) from KTIW Reporting Station
Light Rain Light Rain  
Wind Chill: 50°   Ceiling: 4500
Heat Index: 50°   Visibility: 10mi
Dew Point: 45°   Wind: 7mph
Humidity: 83%   Direction: 160°SSE
Pressure: 29.75"   Gusts: NA
Location:  47.2986°N, 122.616°W
Report Text: KTIW 190153Z 16006KT 10SM -RA BKN045 OVC055 10/07 A2975 RMK AO2 RAB12 SLP075 P0002 T01000072
Loading
Personal Weather Stations






























Interactive Weather Map New forecast layout! Learn more

10-Day Weather Forecast

Advertisements
Track Severe Weather on mobile